createdAt,value
2018-09-19T00:01:29.420Z,100388.84
2018-09-19T00:03:58.151Z,100392.33
2018-09-19T00:06:29.937Z,100382.55
2018-09-19T00:08:58.828Z,100385.20
2018-09-19T00:11:26.963Z,100389.26
2018-09-19T00:13:55.980Z,100396.42
2018-09-19T00:16:24.596Z,100391.97
2018-09-19T00:18:52.833Z,100397.16
2018-09-19T00:21:21.538Z,100396.50
2018-09-19T00:23:49.558Z,100398.18
2018-09-19T00:26:19.954Z,100399.17
2018-09-19T00:28:49.387Z,100403.84
2018-09-19T00:31:22.118Z,100390.56
2018-09-19T00:33:50.294Z,100397.20
2018-09-19T00:36:22.871Z,100397.70
2018-09-19T00:38:51.448Z,100410.81
2018-09-19T00:41:19.393Z,100413.47
2018-09-19T00:43:47.712Z,100417.80
2018-09-19T00:46:15.721Z,100417.31
2018-09-19T00:48:43.824Z,100417.30
2018-09-19T00:51:11.790Z,100420.97
2018-09-19T00:53:39.826Z,100425.58
2018-09-19T00:56:07.798Z,100424.06
2018-09-19T00:58:36.159Z,100424.75
2018-09-19T01:01:04.172Z,100417.56
2018-09-19T01:03:32.343Z,100417.75
2018-09-19T01:06:00.412Z,100420.03
2018-09-19T01:08:28.473Z,100422.36
2018-09-19T01:10:56.478Z,100428.50
2018-09-19T01:13:24.549Z,100428.66
2018-09-19T01:15:52.477Z,100429.00
2018-09-19T01:18:20.460Z,100428.13
2018-09-19T01:20:48.416Z,100430.97
2018-09-19T01:23:16.500Z,100428.66
2018-09-19T01:25:44.850Z,100429.28
2018-09-19T01:28:12.853Z,100434.27
2018-09-19T01:30:41.303Z,100439.25
2018-09-19T01:33:09.482Z,100440.20
2018-09-19T01:35:37.755Z,100439.34
2018-09-19T01:38:06.118Z,100446.27
2018-09-19T01:40:34.283Z,100448.09
2018-09-19T01:43:02.345Z,100448.09
2018-09-19T01:45:30.472Z,100444.80
2018-09-19T01:47:58.656Z,100440.92
2018-09-19T01:50:26.645Z,100444.80
2018-09-19T01:52:54.679Z,100448.59
2018-09-19T01:55:22.648Z,100454.55
2018-09-19T01:57:50.621Z,100452.90
2018-09-19T02:00:18.607Z,100456.05
2018-09-19T02:02:46.768Z,100454.41
2018-09-19T02:05:14.738Z,100459.70
2018-09-19T02:07:42.698Z,100464.66
2018-09-19T02:10:10.807Z,100465.30
2018-09-19T02:12:38.942Z,100468.45
2018-09-19T02:15:07.157Z,100460.45
2018-09-19T02:17:35.162Z,100464.75
2018-09-19T02:20:03.215Z,100468.23
2018-09-19T02:22:31.360Z,100469.91
2018-09-19T02:24:59.377Z,100469.42
2018-09-19T02:27:27.359Z,100480.86
2018-09-19T02:29:55.515Z,100483.08
2018-09-19T02:32:23.800Z,100484.31
2018-09-19T02:34:51.860Z,100482.70
2018-09-19T02:37:19.851Z,100486.06
2018-09-19T02:39:48.020Z,100486.39
2018-09-19T02:42:16.020Z,100487.71
2018-09-19T02:44:44.233Z,100485.58
2018-09-19T02:47:12.277Z,100482.80
2018-09-19T02:49:40.331Z,100487.67
2018-09-19T02:52:08.329Z,100491.55
2018-09-19T02:54:36.371Z,100488.39
2018-09-19T02:57:04.355Z,100495.06
2018-09-19T02:59:32.404Z,100488.91
2018-09-19T03:02:01.236Z,100493.20
2018-09-19T03:04:29.280Z,100499.55
2018-09-19T03:06:57.285Z,100499.20
2018-09-19T03:09:25.412Z,100501.53
2018-09-19T03:11:53.408Z,100503.86
2018-09-19T03:14:21.652Z,100503.67
2018-09-19T03:19:17.757Z,100500.55
2018-09-19T03:21:45.666Z,100498.36
2018-09-19T03:24:13.683Z,100491.22
2018-09-19T03:26:41.877Z,100489.58
2018-09-19T03:29:10.038Z,100488.73
2018-09-19T03:31:37.918Z,100493.23
2018-09-19T03:34:06.006Z,100499.70
2018-09-19T03:36:33.952Z,100496.89
2018-09-19T03:39:02.205Z,100500.69
2018-09-19T03:41:30.163Z,100496.20
2018-09-19T03:43:58.398Z,100493.88
2018-09-19T03:46:26.421Z,100496.89
2018-09-19T03:48:54.538Z,100494.87
2018-09-19T03:51:22.571Z,100499.21
2018-09-19T03:53:50.590Z,100501.19
2018-09-19T03:56:18.750Z,100496.86
2018-09-19T03:58:46.655Z,100497.70
2018-09-19T04:01:14.699Z,100496.52
2018-09-19T04:03:42.761Z,100502.02
2018-09-19T04:06:10.746Z,100502.31
2018-09-19T04:08:38.909Z,100505.83
2018-09-19T04:11:07.103Z,100503.00
2018-09-19T04:13:35.361Z,100511.80
2018-09-19T04:16:03.477Z,100505.64
2018-09-19T04:18:31.585Z,100504.16
2018-09-19T04:20:59.652Z,100502.77
2018-09-19T04:23:27.641Z,100505.06
2018-09-19T04:25:55.602Z,100508.38
2018-09-19T04:28:23.701Z,100502.39
2018-09-19T04:30:51.798Z,100504.55
2018-09-19T04:33:19.954Z,100505.70
2018-09-19T04:35:47.991Z,100496.91
2018-09-19T04:38:16.152Z,100503.88
2018-09-19T04:40:50.909Z,100506.68
2018-09-19T04:43:18.955Z,100508.33
2018-09-19T04:45:47.184Z,100507.36
2018-09-19T04:48:15.299Z,100509.16
2018-09-19T04:50:43.435Z,100507.97
2018-09-19T04:53:11.564Z,100510.66
2018-09-19T04:55:39.681Z,100513.14
2018-09-19T04:58:07.775Z,100518.95
2018-09-19T05:00:35.865Z,100520.25
2018-09-19T05:03:03.814Z,100522.83
2018-09-19T05:05:32.109Z,100532.77
2018-09-19T05:08:00.006Z,100540.58
2018-09-19T07:24:55.425Z,100500.02
2018-09-19T07:30:29.965Z,100501.64
2018-09-19T07:38:23.342Z,100504.73
2018-09-19T07:58:27.402Z,100489.72
2018-09-19T08:00:57.828Z,100500.14
2018-09-19T08:24:30.906Z,100490.09
2018-09-19T09:39:34.241Z,100496.27
2018-09-19T09:42:09.203Z,100495.06
2018-09-19T09:44:45.400Z,100483.29
2018-09-19T09:47:41.116Z,100478.42
2018-09-19T09:55:38.915Z,100475.20
2018-09-19T10:01:29.774Z,100472.40
2018-09-19T10:06:01.064Z,100460.23
2018-09-19T10:13:30.258Z,100450.90
2018-09-19T10:16:02.490Z,100452.31
2018-09-19T10:21:32.300Z,100453.53
2018-09-19T10:27:21.199Z,100440.27
2018-09-19T10:33:24.379Z,100439.13
2018-09-19T10:36:05.890Z,100434.64
2018-09-19T10:41:31.464Z,100436.36
2018-09-19T10:44:11.982Z,100432.39
2018-09-19T11:15:24.830Z,100358.03
2018-09-19T11:23:01.799Z,100368.97
2018-09-19T11:25:51.959Z,100377.78
2018-09-19T11:31:44.939Z,100371.23
2018-09-19T11:34:34.118Z,100368.39
2018-09-19T13:17:15.021Z,100337.34
2018-09-19T13:25:49.131Z,100328.37
2018-09-19T14:56:58.040Z,100255.56
2018-09-19T14:59:37.720Z,100254.19
2018-09-19T15:02:08.040Z,100248.71
2018-09-19T15:04:37.046Z,100248.97
2018-09-19T15:07:37.441Z,100248.53
2018-09-19T15:10:09.841Z,100248.38
2018-09-19T15:12:38.452Z,100247.61
2018-09-19T15:30:43.968Z,100232.70
2018-09-19T15:36:21.503Z,100241.50
2018-09-19T15:41:55.268Z,100235.40
2018-09-19T15:44:43.308Z,100239.73
2018-09-19T15:49:00.612Z,100241.24
2018-09-19T15:51:31.684Z,100233.72
2018-09-19T16:00:35.775Z,100239.25
2018-09-19T19:41:12.867Z,100449.78
2018-09-19T19:43:41.113Z,100454.39
2018-09-19T19:46:09.183Z,100456.37
2018-09-19T19:48:37.396Z,100463.90
2018-09-19T19:51:05.856Z,100466.28
2018-09-19T19:53:34.347Z,100465.64
2018-09-19T19:56:02.850Z,100465.64
2018-09-19T19:58:31.567Z,100472.37
2018-09-19T20:01:00.011Z,100476.77
2018-09-19T20:03:28.568Z,100469.25
2018-09-19T20:05:57.167Z,100474.05
2018-09-19T20:08:25.615Z,100477.24
2018-09-19T20:10:53.779Z,100478.98
2018-09-19T20:13:22.293Z,100483.05
2018-09-19T20:15:51.433Z,100484.27
2018-09-19T20:18:19.800Z,100479.88
2018-09-19T20:20:48.153Z,100485.09
2018-09-19T20:23:16.536Z,100482.29
2018-09-19T20:25:44.525Z,100485.06
2018-09-19T20:28:12.578Z,100497.25
2018-09-19T20:30:40.881Z,100497.70
2018-09-19T20:33:09.350Z,100500.81
2018-09-19T20:35:37.606Z,100498.89
2018-09-19T20:38:05.860Z,100495.29
2018-09-19T20:40:34.061Z,100504.43
2018-09-19T20:43:02.285Z,100500.55
2018-09-19T20:45:30.851Z,100503.61
2018-09-19T20:47:59.032Z,100505.81
2018-09-19T20:50:27.474Z,100519.36
2018-09-19T20:52:55.645Z,100518.84
2018-09-19T20:55:24.390Z,100524.07
2018-09-19T20:57:52.377Z,100531.41
2018-09-19T21:00:20.680Z,100531.58
2018-09-19T21:02:48.803Z,100538.47
2018-09-19T21:05:17.141Z,100536.19
2018-09-19T21:07:45.537Z,100535.97
2018-09-19T21:10:13.593Z,100539.50
2018-09-19T21:12:41.787Z,100532.98
2018-09-19T21:15:09.975Z,100544.31
2018-09-19T21:17:38.166Z,100544.05
2018-09-19T21:20:06.285Z,100541.52
2018-09-19T21:22:34.289Z,100542.80
2018-09-19T21:25:08.905Z,100556.92
2018-09-19T21:27:36.888Z,100552.98
2018-09-19T21:30:05.226Z,100559.97
2018-09-19T21:32:33.215Z,100559.80
2018-09-19T21:35:01.449Z,100556.81
2018-09-19T21:37:30.495Z,100557.62
2018-09-19T21:39:58.868Z,100558.94
2018-09-19T21:42:27.107Z,100563.77
2018-09-19T21:44:55.435Z,100563.80
2018-09-19T21:47:23.615Z,100559.48
2018-09-19T21:49:51.855Z,100561.66
2018-09-19T21:52:19.896Z,100557.59
2018-09-19T21:54:47.997Z,100560.18
2018-09-19T21:57:15.990Z,100569.98
2018-09-19T21:59:44.213Z,100565.78
2018-09-19T22:02:12.467Z,100563.08
2018-09-19T22:04:40.573Z,100567.11
2018-09-19T22:07:08.833Z,100567.56
2018-09-19T22:09:36.953Z,100566.99
2018-09-19T22:12:09.273Z,100564.16
2018-09-19T22:14:38.033Z,100570.00
2018-09-19T22:17:06.489Z,100564.47
2018-09-19T22:19:34.653Z,100567.70
2018-09-19T22:22:03.105Z,100566.02
2018-09-19T22:24:31.293Z,100567.70
2018-09-19T22:26:59.514Z,100570.48
2018-09-19T22:29:34.353Z,100564.83
2018-09-19T22:32:02.364Z,100569.78
2018-09-19T22:34:30.490Z,100561.77
2018-09-19T22:36:58.758Z,100560.31
2018-09-19T22:39:27.089Z,100562.28
2018-09-19T22:41:55.168Z,100562.00
2018-09-19T22:44:23.173Z,100555.02
2018-09-19T22:46:51.196Z,100553.77
2018-09-19T22:49:19.238Z,100559.56
2018-09-19T22:51:47.298Z,100556.80
2018-09-19T22:54:15.462Z,100564.67
2018-09-19T22:56:43.534Z,100568.53
2018-09-19T22:59:11.474Z,100561.17
2018-09-19T23:01:39.457Z,100562.52
2018-09-19T23:04:07.440Z,100566.91
2018-09-19T23:06:35.653Z,100564.24
2018-09-19T23:09:04.847Z,100566.68
2018-09-19T23:11:32.920Z,100560.03
2018-09-19T23:14:00.907Z,100556.17
2018-09-19T23:16:28.885Z,100560.88
2018-09-19T23:18:56.916Z,100555.48
2018-09-19T23:21:24.934Z,100555.11
2018-09-19T23:23:53.039Z,100559.28
2018-09-19T23:26:21.350Z,100551.00
2018-09-19T23:28:49.414Z,100554.12
2018-09-19T23:31:17.484Z,100555.47
2018-09-19T23:33:45.631Z,100554.72
2018-09-19T23:36:13.682Z,100557.41
2018-09-19T23:38:41.776Z,100552.18
2018-09-19T23:41:09.945Z,100557.59
2018-09-19T23:43:38.089Z,100549.28
2018-09-19T23:46:06.160Z,100546.92
2018-09-19T23:48:34.565Z,100549.00
2018-09-19T23:51:03.310Z,100552.18
2018-09-19T23:53:31.550Z,100544.61
2018-09-19T23:55:59.611Z,100550.87
2018-09-19T23:58:27.846Z,100547.95
